TimeEST,TemperatureF,Dew PointF,Humidity,Sea Level PressureIn,VisibilityMPH,Wind Direction,Wind SpeedMPH,Gust SpeedMPH,PrecipitationIn,Events,Conditions,WindDirDegrees,DateUTC
12:23 AM,77.0,75.2,94,30.04,10.0,SE,11.5,-,N/A,,Overcast,140,2011-11-15 05:23:00
12:53 AM,77.0,75.9,96,30.04,10.0,SSE,11.5,-,0.01,,Mostly Cloudy,150,2011-11-15 05:53:00
1:53 AM,77.0,75.0,94,30.03,10.0,SE,10.4,-,N/A,,Mostly Cloudy,140,2011-11-15 06:53:00
2:53 AM,77.0,75.0,94,30.02,10.0,SE,8.1,-,N/A,,Scattered Clouds,140,2011-11-15 07:53:00
3:53 AM,77.0,75.9,96,30.01,10.0,SE,9.2,-,N/A,,Mostly Cloudy,140,2011-11-15 08:53:00
4:53 AM,77.0,75.9,96,30.01,10.0,SSE,6.9,-,N/A,,Mostly Cloudy,160,2011-11-15 09:53:00
5:53 AM,77.0,75.0,94,30.03,10.0,SSE,8.1,-,N/A,,Scattered Clouds,150,2011-11-15 10:53:00
6:53 AM,77.0,75.0,94,30.04,10.0,SSE,8.1,-,N/A,,Scattered Clouds,150,2011-11-15 11:53:00
7:53 AM,79.0,75.9,90,30.05,10.0,SE,10.4,-,N/A,,Scattered Clouds,140,2011-11-15 12:53:00
8:44 AM,80.6,75.2,84,30.06,10.0,SSE,12.7,-,N/A,,Mostly Cloudy,150,2011-11-15 13:44:00
8:53 AM,80.1,77.0,90,30.06,10.0,SE,13.8,-,N/A,,Mostly Cloudy,140,2011-11-15 13:53:00
9:53 AM,81.0,77.0,88,30.07,10.0,SE,18.4,-,N/A,,Mostly Cloudy,140,2011-11-15 14:53:00
10:53 AM,82.9,75.9,79,30.07,10.0,SE,13.8,24.2,N/A,,Mostly Cloudy,140,2011-11-15 15:53:00
11:53 AM,82.9,75.9,79,30.05,10.0,SE,17.3,24.2,N/A,,Mostly Cloudy,130,2011-11-15 16:53:00
12:53 PM,82.0,75.9,82,30.03,10.0,SSE,18.4,21.9,N/A,,Mostly Cloudy,150,2011-11-15 17:53:00
1:53 PM,80.1,75.9,87,30.02,10.0,SSE,15.0,-,0.00,,Mostly Cloudy,150,2011-11-15 18:53:00
2:53 PM,81.0,75.9,85,30.01,10.0,SE,13.8,-,N/A,,Mostly Cloudy,140,2011-11-15 19:53:00
3:32 PM,80.6,75.2,84,30.01,10.0,SSE,13.8,-,N/A,,Scattered Clouds,150,2011-11-15 20:32:00
3:53 PM,81.0,75.9,85,30.01,10.0,SSE,16.1,-,N/A,,Scattered Clouds,150,2011-11-15 20:53:00
4:53 PM,80.1,75.9,87,30.01,10.0,SE,13.8,-,N/A,,Scattered Clouds,140,2011-11-15 21:53:00
5:53 PM,78.1,75.0,90,30.02,10.0,SE,11.5,-,N/A,,Scattered Clouds,140,2011-11-15 22:53:00
6:53 PM,78.1,75.0,90,30.03,10.0,SE,10.4,-,N/A,,Scattered Clouds,140,2011-11-15 23:53:00
7:53 PM,78.1,75.9,93,30.04,10.0,SE,10.4,-,N/A,,Scattered Clouds,130,2011-11-16 00:53:00
8:53 PM,78.1,75.0,90,30.05,10.0,SE,11.5,-,N/A,,Scattered Clouds,130,2011-11-16 01:53:00
9:53 PM,78.1,75.0,90,30.05,10.0,SE,13.8,-,N/A,,Partly Cloudy,140,2011-11-16 02:53:00
10:53 PM,78.1,75.0,90,30.05,10.0,SE,11.5,-,N/A,,Partly Cloudy,140,2011-11-16 03:53:00
11:53 PM,78.1,75.0,90,30.05,10.0,SSE,12.7,18.4,N/A,,Scattered Clouds,150,2011-11-16 04:53:00